Time;durP1;ratioP1;P1;durP2;ratioP2;P2;SDS_P1;SDS_P2;PMS_P1;PMS_P2;Temp;Humidity;BMP_temperature;BMP_pressure;BME280_temperature;BME280_humidity;BME280_pressure;Samples;Min_cycle;Max_cycle;Signal;HPM_P1;HPM_P2
2021/12/17 00:00:19;;;;;;;28.90;16.35;;;;;;;10.85;48.89;97271.63;5090887;28;20024;-62
2021/12/17 00:05:44;;;;;;;22.17;15.80;;;;;;;10.78;48.74;97257.72;5091773;28;20120;-64
2021/12/17 00:08:10;;;;;;;27.15;16.05;;;;;;;10.87;48.65;97268.72;5090754;28;20028;-62
2021/12/17 00:10:36;;;;;;;22.23;14.63;;;;;;;10.93;49.01;97265.81;5091216;28;20438;-63
2021/12/17 00:13:01;;;;;;;22.48;15.43;;;;;;;11.00;48.91;97257.63;5090488;28;20119;-61
2021/12/17 00:15:27;;;;;;;21.27;14.90;;;;;;;11.02;48.04;97265.38;5091214;28;20031;-63
2021/12/17 00:17:59;;;;;;;24.33;15.50;;;;;;;10.99;48.26;97250.69;5091384;28;20390;-63
2021/12/17 00:51:02;;;;;;;20.70;15.15;;;;;;;11.14;48.51;97261.47;5090636;28;20043;-63
2021/12/17 00:53:26;;;;;;;23.67;15.55;;;;;;;11.09;47.89;97249.97;5090772;28;20035;-63
2021/12/17 00:55:51;;;;;;;21.02;15.60;;;;;;;11.37;48.67;97259.50;5090746;28;20039;-63
2021/12/17 00:58:17;;;;;;;21.17;14.32;;;;;;;11.26;47.79;97257.81;5089332;28;20032;-63
2021/12/17 01:00:43;;;;;;;24.58;14.90;;;;;;;11.36;47.76;97269.38;5089796;28;20024;-63
2021/12/17 01:03:09;;;;;;;19.13;13.80;;;;;;;11.47;47.75;97275.56;5090570;28;20114;-62
2021/12/17 01:05:34;;;;;;;27.27;15.82;;;;;;;11.27;47.26;97254.91;5090491;28;20028;-62
2021/12/17 01:08:02;;;;;;;19.08;14.77;;;;;;;11.44;47.42;97279.53;5090392;28;20032;-62
2021/12/17 01:10:34;;;;;;;24.50;15.15;;;;;;;11.43;47.55;97283.25;5089881;28;20027;-62
2021/12/17 01:13:01;;;;;;;19.58;13.73;;;;;;;11.39;47.91;97276.81;5089087;28;20036;-62
2021/12/17 01:15:27;;;;;;;18.98;14.20;;;;;;;11.50;47.53;97274.22;5089932;28;20024;-62
2021/12/17 01:18:02;;;;;;;21.02;14.73;;;;;;;11.52;47.59;97272.13;5089635;28;20032;-62
2021/12/17 01:36:03;;;;;;;13.18;11.80;;;;;;;11.69;47.45;97248.75;5089782;28;20054;-63
2021/12/17 01:43:46;;;;;;;15.57;13.20;;;;;;;11.64;47.07;97219.41;5087613;28;20050;-63
2021/12/17 01:46:22;;;;;;;14.07;12.43;;;;;;;11.70;46.66;97224.50;5089423;28;20381;-63
2021/12/17 01:59:17;;;;;;;14.38;11.60;;;;;;;11.73;47.72;97230.38;5089221;28;20098;-63
2021/12/17 01:59:41;;;;;;;14.88;13.38;;;;;;;11.59;47.01;97211.38;5088163;28;20035;-63
2021/12/17 02:02:09;;;;;;;14.27;12.52;;;;;;;11.52;47.45;97205.50;5089511;28;20024;-63
2021/12/17 02:04:36;;;;;;;13.85;12.35;;;;;;;11.69;47.04;97238.09;5089455;28;20028;-63
2021/12/17 02:07:02;;;;;;;15.15;12.77;;;;;;;11.72;47.29;97237.59;5089353;28;20057;-63
2021/12/17 02:20:39;;;;;;;17.27;13.65;;;;;;;11.85;47.54;97207.78;5088872;28;20067;-63
2021/12/17 02:31:59;;;;;;;19.88;14.75;;;;;;;11.72;47.15;97194.94;5092703;28;20173;-63
2021/12/17 02:37:09;;;;;;;28.58;18.80;;;;;;;11.76;47.48;97184.53;5093330;28;20077;-62
2021/12/17 02:47:58;;;;;;;28.67;17.85;;;;;;;11.77;47.45;97197.59;5093312;28;20096;-63
2021/12/17 02:50:25;;;;;;;22.70;16.08;;;;;;;11.76;47.74;97192.53;5092394;28;20024;-63
2021/12/17 02:52:53;;;;;;;24.00;17.58;;;;;;;11.74;47.63;97186.66;5092986;28;20031;-63
2021/12/17 02:55:19;;;;;;;20.08;16.25;;;;;;;11.85;48.17;97177.66;5093022;28;20385;-63
2021/12/17 02:57:45;;;;;;;19.02;16.13;;;;;;;11.80;47.38;97186.41;5091940;28;20032;-63
2021/12/17 03:00:11;;;;;;;24.77;17.15;;;;;;;11.89;47.51;97189.41;5091865;28;20493;-63
2021/12/17 03:02:39;;;;;;;21.27;16.55;;;;;;;11.77;47.65;97165.59;5092571;28;20473;-63
2021/12/17 03:05:06;;;;;;;27.10;18.63;;;;;;;11.87;47.90;97187.00;5092676;28;20099;-63
2021/12/17 03:07:35;;;;;;;20.50;15.82;;;;;;;11.69;47.39;97171.44;5092449;28;20032;-63
2021/12/17 03:10:04;;;;;;;20.27;16.27;;;;;;;11.73;47.40;97175.19;5090587;28;20024;-63
2021/12/17 03:15:21;;;;;;;21.33;14.93;;;;;;;11.68;47.17;97153.84;5092454;28;20028;-63
2021/12/17 03:23:32;;;;;;;19.30;15.25;;;;;;;12.04;47.68;97186.78;5092236;28;20065;-63
2021/12/17 03:26:15;;;;;;;19.90;16.10;;;;;;;11.95;47.78;97167.81;5090969;28;20034;-63
2021/12/17 03:28:45;;;;;;;19.02;15.20;;;;;;;12.03;47.19;97179.88;5089580;28;20530;-63
2021/12/17 03:31:12;;;;;;;18.48;15.63;;;;;;;12.11;47.56;97198.00;5089961;28;20032;-63
2021/12/17 03:33:41;;;;;;;21.23;16.83;;;;;;;12.08;47.43;97197.72;5090649;28;20429;-63
2021/12/17 03:36:14;;;;;;;22.95;16.77;;;;;;;12.17;46.91;97204.94;5090749;28;20118;-63
2021/12/17 03:38:41;;;;;;;23.80;17.17;;;;;;;12.15;47.40;97215.09;5091565;28;20024;-63
2021/12/17 03:41:25;;;;;;;23.80;16.63;;;;;;;12.09;47.21;97205.47;5091281;28;20470;-63
2021/12/17 03:43:54;;;;;;;20.77;15.45;;;;;;;12.13;47.14;97201.22;5090481;28;20056;-63
2021/12/17 03:46:21;;;;;;;19.50;16.02;;;;;;;12.03;47.60;97209.19;5091606;28;20023;-62
2021/12/17 03:48:47;;;;;;;18.67;15.23;;;;;;;12.10;47.65;97208.94;5091425;28;20085;-63
2021/12/17 03:51:16;;;;;;;19.90;15.82;;;;;;;11.97;47.69;97170.22;5090716;28;20124;-63
2021/12/17 03:53:44;;;;;;;20.67;14.68;;;;;;;11.90;47.53;97165.16;5090700;28;20021;-63
2021/12/17 03:56:09;;;;;;;24.38;17.10;;;;;;;12.26;47.05;97201.78;5089816;28;20040;-63
2021/12/17 03:58:35;;;;;;;18.17;15.05;;;;;;;12.26;47.43;97202.56;5089173;28;20051;-63
2021/12/17 04:01:01;;;;;;;19.08;15.90;;;;;;;11.97;47.39;97202.22;5090987;28;20024;-63
2021/12/17 04:03:26;;;;;;;20.42;15.20;;;;;;;11.97;47.14;97179.03;5091374;28;20024;-63
2021/12/17 04:05:51;;;;;;;18.27;15.43;;;;;;;12.04;47.31;97184.13;5090898;28;20531;-63
2021/12/17 04:08:17;;;;;;;21.73;16.83;;;;;;;12.18;47.12;97182.56;5089335;28;20051;-62
2021/12/17 04:10:46;;;;;;;19.55;15.30;;;;;;;12.16;47.22;97179.34;5090237;28;20377;-63
2021/12/17 04:13:24;;;;;;;20.50;17.33;;;;;;;12.31;46.70;97178.56;5083750;28;20020;-62
2021/12/17 04:15:59;;;;;;;18.05;15.38;;;;;;;12.35;47.00;97185.00;5090851;28;20497;-62
2021/12/17 04:18:25;;;;;;;18.08;15.75;;;;;;;12.37;47.35;97187.38;5089248;28;20547;-63
2021/12/17 04:20:51;;;;;;;21.70;17.13;;;;;;;12.25;46.93;97174.28;5089252;28;20051;-63
2021/12/17 04:23:17;;;;;;;23.55;17.92;;;;;;;12.17;46.90;97164.94;5091023;28;20024;-62
2021/12/17 04:25:43;;;;;;;19.30;16.35;;;;;;;12.11;47.45;97143.84;5090888;28;20051;-62
2021/12/17 04:28:08;;;;;;;16.77;15.00;;;;;;;12.45;47.40;97170.84;5089607;28;20528;-62
2021/12/17 04:30:34;;;;;;;20.42;15.63;;;;;;;12.39;47.37;97142.56;5088985;28;20028;-62
2021/12/17 04:32:59;;;;;;;16.17;14.48;;;;;;;12.57;46.83;97158.03;5089322;28;20039;-62
2021/12/17 04:35:25;;;;;;;18.92;16.42;;;;;;;12.56;46.89;97151.09;5089473;28;20035;-62
2021/12/17 04:37:51;;;;;;;17.77;14.82;;;;;;;12.59;46.92;97136.41;5090932;28;20024;-62
2021/12/17 04:40:18;;;;;;;18.65;16.58;;;;;;;12.70;46.81;97154.03;5089709;28;20028;-62
2021/12/17 04:45:28;;;;;;;18.42;16.27;;;;;;;12.72;46.90;97166.03;5090267;28;20724;-63
2021/12/17 04:58:50;;;;;;;16.17;14.15;;;;;;;12.63;46.61;97134.81;5090711;28;20127;-62
2021/12/17 05:01:16;;;;;;;15.65;14.05;;;;;;;12.67;46.47;97130.53;5089559;28;20026;-63
2021/12/17 05:03:42;;;;;;;16.52;13.13;;;;;;;12.69;46.76;97139.06;5088996;28;20133;-62
2021/12/17 05:06:07;;;;;;;15.73;13.80;;;;;;;12.76;46.55;97150.31;5088923;28;20115;-62
2021/12/17 05:08:33;;;;;;;14.98;12.68;;;;;;;12.70;46.51;97141.50;5089805;28;20034;-63
2021/12/17 05:11:23;;;;;;;14.68;13.20;;;;;;;12.66;46.28;97136.97;5089577;28;20517;-63
2021/12/17 05:19:38;;;;;;;14.80;13.30;;;;;;;12.52;46.32;97130.53;5069231;28;20035;-62
2021/12/17 05:22:08;;;;;;;13.65;12.35;;;;;;;12.50;46.45;97133.50;5069612;28;20077;-63
2021/12/17 05:24:34;;;;;;;13.18;11.80;;;;;;;12.42;46.76;97115.31;5068321;28;20024;-63
2021/12/17 05:26:59;;;;;;;13.82;11.48;;;;;;;12.48;46.24;97122.25;5069545;28;20040;-63
2021/12/17 05:29:24;;;;;;;14.50;13.00;;;;;;;12.35;46.74;97101.47;5085406;28;20027;-62
2021/12/17 05:31:50;;;;;;;13.20;11.80;;;;;;;12.35;46.12;97134.28;5087794;28;20125;-62
2021/12/17 05:34:15;;;;;;;12.95;11.75;;;;;;;12.25;46.39;97136.94;5089881;28;20030;-62
2021/12/17 05:36:40;;;;;;;12.60;11.32;;;;;;;12.43;46.65;97149.75;5088504;28;20489;-62
2021/12/17 05:39:06;;;;;;;11.35;10.15;;;;;;;12.35;46.94;97162.84;5088813;28;20046;-66
2021/12/17 05:41:31;;;;;;;10.07;9.07;;;;;;;12.42;47.00;97153.50;5089598;28;20051;-65
2021/12/17 05:43:57;;;;;;;10.15;9.15;;;;;;;12.39;46.72;97138.03;5088615;28;20050;-64
2021/12/17 05:46:37;;;;;;;10.00;8.77;;;;;;;12.42;46.75;97137.47;5088257;28;20434;-65
2021/12/17 05:49:04;;;;;;;10.23;9.30;;;;;;;12.56;46.36;97169.00;5088718;28;20039;-64
2021/12/17 05:51:29;;;;;;;10.25;9.35;;;;;;;12.50;46.49;97160.19;5089535;28;20199;-64
2021/12/17 05:53:55;;;;;;;10.07;9.07;;;;;;;11.89;46.72;97085.41;5089448;28;20312;-64
2021/12/17 05:56:21;;;;;;;8.90;8.00;;;;;;;11.97;47.36;97160.34;5089539;28;20024;-63
2021/12/17 05:58:47;;;;;;;7.85;7.15;;;;;;;11.77;47.73;97183.47;5088210;28;20027;-66
2021/12/17 06:01:13;;;;;;;6.22;5.72;;;;;;;11.94;48.02;97190.22;5088630;28;20024;-67
2021/12/17 06:03:38;;;;;;;7.25;6.57;;;;;;;11.89;48.22;97176.09;5089437;28;20657;-61
2021/12/17 06:06:04;;;;;;;5.90;5.40;;;;;;;12.09;47.48;97180.69;5092866;28;20024;-63
2021/12/17 06:08:29;;;;;;;7.05;6.45;;;;;;;12.14;47.76;97196.69;5093316;28;20544;-63
2021/12/17 06:10:55;;;;;;;7.18;6.55;;;;;;;12.04;47.26;97170.00;5093011;28;20022;-64
2021/12/17 06:13:20;;;;;;;9.48;6.93;;;;;;;12.05;47.00;97192.94;5092879;28;20028;-65
2021/12/17 06:15:45;;;;;;;8.75;7.57;;;;;;;11.73;47.76;97201.84;5093185;28;20078;-63
2021/12/17 06:18:11;;;;;;;8.80;8.00;;;;;;;11.28;48.60;97184.56;5091806;28;20052;-65
2021/12/17 06:20:36;;;;;;;8.88;7.20;;;;;;;11.08;49.66;97201.22;5093227;28;20454;-64
2021/12/17 06:23:02;;;;;;;8.38;7.68;;;;;;;11.22;49.78;97217.59;5093750;28;20422;-64
2021/12/17 06:25:28;;;;;;;7.22;6.55;;;;;;;10.62;50.06;97184.13;5093302;28;20072;-66
2021/12/17 06:27:53;;;;;;;7.45;6.75;;;;;;;11.05;49.24;97193.75;5092623;28;20047;-65
2021/12/17 06:30:20;;;;;;;6.47;5.97;;;;;;;11.30;49.60;97211.75;5092235;28;20052;-63
2021/12/17 06:32:46;;;;;;;6.20;5.70;;;;;;;11.17;49.07;97188.25;5093513;28;20351;-63
2021/12/17 06:35:12;;;;;;;6.38;5.88;;;;;;;11.17;49.28;97174.94;5093321;28;20023;-64
2021/12/17 06:37:40;;;;;;;5.88;5.38;;;;;;;11.13;49.12;97203.94;5093331;28;20024;-64
2021/12/17 06:40:07;;;;;;;5.97;5.47;;;;;;;10.93;49.19;97156.66;5092460;28;20024;-66
2021/12/17 06:42:33;;;;;;;6.45;5.93;;;;;;;11.33;48.53;97210.44;5092657;28;20024;-66
2021/12/17 06:45:03;;;;;;;6.70;6.10;;;;;;;11.33;49.20;97211.25;5092749;28;20493;-66
2021/12/17 06:47:33;;;;;;;6.90;6.22;;;;;;;11.24;49.04;97196.00;5092658;28;20500;-66
2021/12/17 07:06:35;;;;;;;11.23;10.10;;;;;;;11.08;48.92;97195.09;5029769;28;20037;-66
2021/12/17 07:10:13;;;;;;;15.20;12.85;;;;;;;10.90;48.38;97181.16;5087212;28;20392;-65
2021/12/17 07:28:29;;;;;;;17.08;13.57;;;;;;;10.08;49.65;97184.94;5076965;28;20047;-63
2021/12/17 07:33:32;;;;;;;21.08;15.45;;;;;;;9.95;49.96;97195.16;5092234;28;20036;-66
2021/12/17 07:36:07;;;;;;;17.50;14.10;;;;;;;9.87;50.43;97197.19;5090624;28;20028;-63
2021/12/17 07:38:38;;;;;;;18.50;15.02;;;;;;;9.73;50.48;97187.19;5091534;28;20044;-67
2021/12/17 07:41:04;;;;;;;14.67;13.17;;;;;;;9.69;50.13;97176.25;5090272;28;20058;-66
2021/12/17 07:43:38;;;;;;;18.88;14.63;;;;;;;9.81;50.49;97187.53;5089620;28;20046;-63
2021/12/17 07:46:07;;;;;;;15.52;13.85;;;;;;;9.75;51.03;97199.16;5083167;28;20673;-64
2021/12/17 07:48:33;;;;;;;16.70;13.45;;;;;;;9.64;51.24;97211.53;5089958;28;20401;-66
2021/12/17 07:51:02;;;;;;;23.83;15.82;;;;;;;9.68;51.06;97233.13;5090828;28;20121;-64
2021/12/17 07:53:29;;;;;;;21.52;14.82;;;;;;;9.35;50.78;97192.28;5090355;28;20115;-65
2021/12/17 07:55:55;;;;;;;15.48;13.82;;;;;;;9.38;50.88;97204.28;5090280;28;20442;-65
2021/12/17 07:58:21;;;;;;;16.13;13.68;;;;;;;9.53;51.18;97219.63;5090801;28;20500;-65
2021/12/17 08:00:46;;;;;;;15.73;13.13;;;;;;;9.50;51.32;97217.47;5090715;28;20055;-62
2021/12/17 08:03:14;;;;;;;13.90;12.50;;;;;;;9.56;51.00;97222.56;5091263;28;20059;-68
2021/12/17 08:05:42;;;;;;;16.00;14.30;;;;;;;9.47;50.91;97210.78;5091168;28;20024;-67
2021/12/17 08:08:08;;;;;;;15.40;13.75;;;;;;;9.60;51.17;97226.34;5090181;28;20020;-66
2021/12/17 08:10:33;;;;;;;16.55;14.55;;;;;;;9.49;51.01;97229.94;5089504;28;20030;-64
2021/12/17 08:12:59;;;;;;;14.80;13.30;;;;;;;9.62;50.54;97220.78;5090805;28;20028;-65
2021/12/17 08:15:32;;;;;;;14.63;12.88;;;;;;;9.75;50.57;97224.94;5091050;28;20020;-63
2021/12/17 08:23:55;;;;;;;15.55;12.85;;;;;;;9.84;50.01;97224.28;5091648;28;20043;-67
2021/12/17 08:26:12;;;;;;;15.20;13.60;;;;;;;9.83;50.31;97200.59;5090617;28;20549;-68
2021/12/17 08:29:06;;;;;;;16.52;14.32;;;;;;;9.95;49.93;97229.72;5089626;28;20057;-65
2021/12/17 08:31:33;;;;;;;16.83;14.80;;;;;;;9.99;49.69;97217.53;5086421;28;20020;-65
2021/12/17 08:34:02;;;;;;;14.98;13.38;;;;;;;10.02;49.92;97215.16;5089579;28;20077;-65
2021/12/17 08:36:28;;;;;;;15.52;13.93;;;;;;;10.05;49.75;97213.88;5090972;28;20039;-64
2021/12/17 08:38:54;;;;;;;16.50;13.48;;;;;;;10.05;49.58;97204.03;5090604;28;20047;-65
2021/12/17 08:41:21;;;;;;;17.95;14.15;;;;;;;10.12;50.03;97201.97;5089318;28;20378;-65
2021/12/17 08:43:47;;;;;;;15.32;13.30;;;;;;;10.23;50.01;97208.19;5090128;28;20024;-65
2021/12/17 08:46:12;;;;;;;14.27;12.88;;;;;;;10.10;49.15;97195.31;5090278;28;20031;-65
2021/12/17 08:48:38;;;;;;;15.63;13.55;;;;;;;10.03;49.64;97174.25;5089983;28;20032;-66
2021/12/17 08:51:06;;;;;;;16.73;14.60;;;;;;;10.24;49.69;97195.75;5090215;28;20055;-66
2021/12/17 08:53:33;;;;;;;15.63;12.60;;;;;;;10.45;49.03;97212.72;5090791;28;20115;-65
2021/12/17 08:55:59;;;;;;;14.18;12.43;;;;;;;10.37;49.30;97198.78;5090603;28;20028;-65
2021/12/17 08:58:24;;;;;;;16.00;14.40;;;;;;;10.40;49.09;97190.31;5089320;28;20449;-66
2021/12/17 09:00:50;;;;;;;20.13;14.35;;;;;;;10.58;49.49;97212.28;5088471;28;20027;-65
2021/12/17 09:03:15;;;;;;;18.23;13.43;;;;;;;10.38;49.14;97171.13;5090329;28;20027;-65
2021/12/17 09:05:43;;;;;;;14.15;12.63;;;;;;;10.63;49.22;97201.69;5090086;28;20394;-66
2021/12/17 09:08:10;;;;;;;15.20;13.70;;;;;;;10.80;49.24;97217.53;5089978;28;20106;-65
2021/12/17 09:10:36;;;;;;;15.00;13.50;;;;;;;10.51;49.64;97217.03;5089985;28;20047;-64
2021/12/17 09:13:03;;;;;;;15.95;12.40;;;;;;;10.72;49.21;97207.34;5089015;28;20031;-65
2021/12/17 09:15:29;;;;;;;14.55;12.98;;;;;;;10.80;48.82;97220.19;5089198;28;20023;-64
2021/12/17 09:17:55;;;;;;;16.00;12.63;;;;;;;10.78;49.19;97212.47;5088861;28;20461;-64
2021/12/17 09:20:20;;;;;;;14.27;12.88;;;;;;;10.83;49.52;97206.38;5088248;28;20032;-65
2021/12/17 09:22:46;;;;;;;15.40;12.60;;;;;;;10.87;48.62;97189.63;5088511;28;20437;-65
2021/12/17 09:25:12;;;;;;;13.98;12.57;;;;;;;11.03;48.55;97187.09;5088860;28;20077;-64
2021/12/17 09:27:37;;;;;;;15.40;12.52;;;;;;;10.99;48.93;97191.31;5088803;28;20470;-64
2021/12/17 09:30:08;;;;;;;14.50;11.40;;;;;;;10.85;49.40;97199.75;5088360;28;20439;-64
2021/12/17 09:32:34;;;;;;;19.83;10.93;;;;;;;11.04;48.05;97183.34;5089858;28;20363;-64
2021/12/17 09:35:00;;;;;;;10.93;9.90;;;;;;;10.94;48.16;97184.88;5088330;28;20035;-65
2021/12/17 09:37:25;;;;;;;11.43;9.70;;;;;;;11.21;48.03;97197.34;5090005;28;20028;-65
2021/12/17 09:39:50;;;;;;;9.52;8.63;;;;;;;11.08;47.82;97190.59;5088264;28;20038;-64
2021/12/17 09:42:16;;;;;;;11.13;9.60;;;;;;;11.12;47.26;97199.66;5088664;28;20028;-64
2021/12/17 09:44:42;;;;;;;11.63;10.25;;;;;;;11.16;47.34;97192.78;5088798;28;20032;-65
2021/12/17 09:47:08;;;;;;;20.13;9.43;;;;;;;11.29;47.40;97204.81;5089570;28;20035;-65
2021/12/17 09:49:34;;;;;;;12.85;9.85;;;;;;;11.24;47.49;97204.00;5087674;28;20020;-65
2021/12/17 09:52:00;;;;;;;10.35;9.35;;;;;;;11.24;46.91;97188.81;5088438;28;20035;-64
2021/12/17 09:54:26;;;;;;;11.00;9.85;;;;;;;11.47;46.93;97171.63;5089766;28;20024;-65
2021/12/17 09:56:52;;;;;;;12.60;10.13;;;;;;;11.50;46.84;97178.28;5089573;28;20028;-66
2021/12/17 09:59:17;;;;;;;10.70;9.60;;;;;;;11.51;46.86;97194.00;5088014;28;20028;-64
2021/12/17 10:01:44;;;;;;;10.50;9.50;;;;;;;11.61;46.59;97185.25;5089277;28;20024;-64
2021/12/17 10:04:17;;;;;;;10.05;9.15;;;;;;;11.45;46.47;97189.72;5089430;28;20501;-65
2021/12/17 10:06:45;;;;;;;13.32;9.38;;;;;;;11.33;46.79;97171.28;5089355;28;20035;-65
2021/12/17 10:09:11;;;;;;;9.90;8.80;;;;;;;11.43;46.67;97183.84;5088730;28;20056;-64
2021/12/17 10:11:36;;;;;;;10.02;9.02;;;;;;;11.49;46.90;97174.03;5088093;28;20077;-65
2021/12/17 10:14:16;;;;;;;13.30;9.40;;;;;;;11.68;46.20;97177.84;5086705;28;20048;-65
2021/12/17 10:16:42;;;;;;;11.02;9.63;;;;;;;11.76;46.12;97176.53;5088907;28;20024;-66
2021/12/17 10:19:08;;;;;;;11.27;9.23;;;;;;;11.74;46.48;97157.34;5087055;28;20493;-65
2021/12/17 10:21:38;;;;;;;10.48;9.32;;;;;;;11.64;46.32;97139.44;5088079;28;20028;-65
2021/12/17 10:24:04;;;;;;;11.60;9.65;;;;;;;11.86;45.92;97161.38;5089281;28;20035;-65
2021/12/17 10:26:41;;;;;;;10.07;9.00;;;;;;;11.94;45.92;97166.22;5087734;28;20024;-66
2021/12/17 10:29:07;;;;;;;9.75;8.85;;;;;;;12.01;45.25;97159.84;5085817;28;20553;-65
2021/12/17 10:31:36;;;;;;;10.88;9.80;;;;;;;11.94;45.14;97150.22;5088804;28;20107;-66
2021/12/17 10:34:04;;;;;;;9.77;8.88;;;;;;;11.88;45.25;97148.63;5088989;28;20078;-65
2021/12/17 10:36:41;;;;;;;10.45;9.45;;;;;;;11.89;45.32;97152.88;5089353;28;20504;-65
2021/12/17 10:39:24;;;;;;;10.77;9.68;;;;;;;12.12;45.50;97162.25;5088243;28;20108;-66
2021/12/17 10:41:51;;;;;;;16.23;10.63;;;;;;;12.18;45.66;97157.72;5087792;28;20351;-65
2021/12/17 10:44:19;;;;;;;14.57;10.30;;;;;;;12.20;45.14;97144.94;5082267;28;20029;-65
2021/12/17 10:47:15;;;;;;;10.52;9.63;;;;;;;12.30;45.20;97154.81;5087257;28;20103;-65
2021/12/17 10:49:54;;;;;;;13.85;9.18;;;;;;;12.34;45.07;97172.72;5088229;28;20024;-66
2021/12/17 10:52:28;;;;;;;10.25;9.27;;;;;;;12.10;45.71;97163.59;5091776;28;20045;-66
2021/12/17 10:55:13;;;;;;;9.65;8.77;;;;;;;12.26;44.79;97172.44;5092725;28;20035;-66
2021/12/17 10:57:38;;;;;;;9.43;8.55;;;;;;;11.99;45.49;97156.63;5093104;28;20032;-66
2021/12/17 11:00:07;;;;;;;9.52;8.63;;;;;;;12.28;44.81;97176.41;5091197;28;20153;-67
2021/12/17 11:02:33;;;;;;;11.13;10.02;;;;;;;12.03;45.07;97133.69;5092544;28;20062;-66
2021/12/17 11:05:10;;;;;;;9.40;8.48;;;;;;;12.25;44.68;97147.63;5092723;28;20048;-66
2021/12/17 11:07:38;;;;;;;10.52;9.30;;;;;;;12.37;44.56;97176.72;5092837;28;20504;-66
2021/12/17 11:10:04;;;;;;;12.00;10.30;;;;;;;12.11;44.83;97160.66;5090621;28;20123;-66
2021/12/17 11:12:31;;;;;;;10.43;9.38;;;;;;;12.43;44.82;97171.09;5092690;28;20078;-66
2021/12/17 11:15:24;;;;;;;10.95;9.73;;;;;;;12.58;44.46;97175.66;5084410;28;20020;-66
2021/12/17 11:18:00;;;;;;;11.68;10.52;;;;;;;12.48;44.32;97168.44;5092188;28;20024;-66
2021/12/17 11:20:37;;;;;;;10.45;9.45;;;;;;;12.43;44.67;97163.09;5091067;28;20082;-66
2021/12/17 11:23:08;;;;;;;11.48;10.30;;;;;;;12.35;44.40;97131.63;5090172;28;20547;-66
2021/12/17 11:25:36;;;;;;;10.57;9.68;;;;;;;12.61;44.25;97144.97;5092269;28;20031;-66
2021/12/17 11:28:03;;;;;;;11.65;10.52;;;;;;;12.72;44.17;97162.56;5092443;28;20062;-67
2021/12/17 11:30:32;;;;;;;12.05;10.50;;;;;;;12.46;43.86;97143.88;5091077;28;20370;-65
2021/12/17 11:33:01;;;;;;;13.30;11.32;;;;;;;12.54;43.99;97147.91;5091377;28;20497;-66
2021/12/17 11:35:29;;;;;;;11.88;10.68;;;;;;;12.40;43.81;97109.47;5090843;28;20032;-64
2021/12/17 11:38:04;;;;;;;11.10;9.85;;;;;;;11.13;47.93;97113.38;5092213;28;20040;-65
2021/12/17 11:40:52;;;;;;;10.98;9.88;;;;;;;11.90;46.11;97127.81;5091811;28;20733;-65
2021/12/17 11:43:38;;;;;;;13.43;10.40;;;;;;;12.46;44.88;97124.41;5081106;28;20115;-64
2021/12/17 11:46:14;;;;;;;14.00;10.43;;;;;;;11.84;45.28;97115.53;5086312;28;20485;-66
2021/12/17 11:48:49;;;;;;;11.05;9.95;;;;;;;12.23;45.78;97133.72;5090293;28;20705;-66
2021/12/17 11:51:17;;;;;;;14.52;9.73;;;;;;;12.51;45.17;97126.28;5090466;28;20028;-65
2021/12/17 11:53:58;;;;;;;9.90;8.90;;;;;;;10.88;49.36;97139.84;5092105;28;20024;-65
2021/12/17 11:56:43;;;;;;;10.43;9.33;;;;;;;11.84;46.18;97122.72;5092102;28;20016;-65
2021/12/17 11:59:32;;;;;;;11.20;10.07;;;;;;;12.28;45.42;97120.38;5090479;28;20050;-65
2021/12/17 12:02:02;;;;;;;12.15;9.00;;;;;;;12.45;44.91;97128.16;5092056;28;20047;-65
2021/12/17 12:04:34;;;;;;;10.35;9.45;;;;;;;12.45;45.60;97130.81;5090769;28;20095;-66
2021/12/17 12:07:00;;;;;;;10.05;8.85;;;;;;;11.62;48.45;97128.25;5090206;28;20148;-68
2021/12/17 12:10:03;;;;;;;11.25;9.15;;;;;;;10.57;51.16;97141.50;5091299;28;20024;-67
2021/12/17 12:12:35;;;;;;;10.43;9.43;;;;;;;10.81;51.75;97131.31;5090646;28;20032;-68
2021/12/17 12:15:28;;;;;;;12.30;9.02;;;;;;;10.40;53.18;97131.00;5095267;28;20028;-67
2021/12/17 12:18:06;;;;;;;12.00;10.05;;;;;;;10.81;51.60;97116.13;5091169;28;20032;-68
2021/12/17 12:20:55;;;;;;;12.55;10.15;;;;;;;10.28;53.91;97125.81;5089203;28;20009;-68
2021/12/17 12:23:29;;;;;;;10.52;9.63;;;;;;;9.75;55.69;97131.94;5090980;28;20134;-67
2021/12/17 12:26:04;;;;;;;10.45;9.45;;;;;;;9.73;56.35;97120.75;5089561;28;20113;-65
2021/12/17 12:28:44;;;;;;;9.80;8.93;;;;;;;9.33;57.15;97128.00;5090467;28;20028;-67
2021/12/17 12:31:13;;;;;;;11.25;10.07;;;;;;;10.38;54.01;97135.75;5085285;28;20040;-67
2021/12/17 12:34:01;;;;;;;11.25;10.00;;;;;;;10.18;54.98;97133.69;5090449;28;20020;-66
2021/12/17 12:36:51;;;;;;;11.80;10.00;;;;;;;9.70;55.62;97145.16;5090823;28;20662;-68
2021/12/17 12:39:32;;;;;;;11.93;10.82;;;;;;;9.84;55.58;97138.41;5089993;28;20070;-65
2021/12/17 12:42:18;;;;;;;11.95;10.73;;;;;;;9.84;55.41;97119.81;5090877;28;20027;-66
2021/12/17 12:44:44;;;;;;;11.48;10.48;;;;;;;10.33;53.76;97146.34;5085935;28;20028;-67
2021/12/17 12:47:14;;;;;;;11.27;10.27;;;;;;;9.35;56.28;97143.69;5088957;28;20350;-67
2021/12/17 12:49:51;;;;;;;11.63;8.95;;;;;;;9.48;56.23;97142.53;5089729;28;20546;-65
2021/12/17 12:52:28;;;;;;;10.50;9.50;;;;;;;8.72;57.53;97153.72;5086942;28;20068;-64
2021/12/17 12:54:59;;;;;;;11.10;9.13;;;;;;;8.70;58.12;97136.41;5089754;28;20107;-65
2021/12/17 12:57:26;;;;;;;9.60;8.55;;;;;;;9.22;56.58;97154.69;5089157;28;20075;-66
2021/12/17 12:59:53;;;;;;;11.70;9.90;;;;;;;9.32;56.57;97145.00;5089556;28;20059;-65
2021/12/17 13:02:20;;;;;;;11.57;10.57;;;;;;;9.95;54.84;97141.97;5088463;28;20469;-64
2021/12/17 13:04:46;;;;;;;11.80;9.70;;;;;;;10.48;53.52;97146.47;5088828;28;20653;-66
2021/12/17 13:07:15;;;;;;;10.48;9.57;;;;;;;9.08;56.80;97131.13;5090282;28;20032;-66
2021/12/17 13:09:44;;;;;;;9.90;9.00;;;;;;;9.33;55.87;97149.25;5089393;28;20020;-66
2021/12/17 13:12:10;;;;;;;13.80;10.57;;;;;;;10.83;52.69;97135.28;5088976;28;20048;-65
2021/12/17 13:14:44;;;;;;;11.25;10.10;;;;;;;11.44;50.46;97135.63;5088003;28;20474;-64
2021/12/17 13:17:39;;;;;;;10.88;9.98;;;;;;;11.51;50.01;97121.25;5083718;28;20023;-66
2021/12/17 13:20:40;;;;;;;11.25;10.15;;;;;;;11.76;49.18;97136.53;5089082;28;20036;-65
2021/12/17 13:23:00;;;;;;;11.50;9.75;;;;;;;11.19;49.98;97130.19;5089914;28;20040;-65
2021/12/17 13:25:31;;;;;;;10.35;9.43;;;;;;;11.40;49.99;97150.53;5088577;28;20020;-64
2021/12/17 13:27:57;;;;;;;11.05;9.98;;;;;;;11.69;49.18;97155.44;5089824;28;20384;-65
2021/12/17 13:30:24;;;;;;;10.77;9.88;;;;;;;12.38;48.01;97149.75;5085947;28;20115;-65
2021/12/17 13:32:52;;;;;;;11.27;10.27;;;;;;;12.40;47.62;97144.16;5088176;28;20054;-65
2021/12/17 13:35:17;;;;;;;10.82;9.93;;;;;;;12.54;46.97;97147.09;5088500;28;20469;-65
2021/12/17 13:37:43;;;;;;;12.10;11.20;;;;;;;12.60;46.75;97152.19;5088393;28;20074;-65
2021/12/17 13:40:11;;;;;;;13.27;12.18;;;;;;;12.17;47.73;97153.47;5087372;28;20047;-65
2021/12/17 13:42:39;;;;;;;13.05;11.80;;;;;;;11.81;48.22;97147.22;5089381;28;20031;-66
2021/12/17 13:45:14;;;;;;;13.57;12.50;;;;;;;11.98;48.25;97150.50;5088975;28;20056;-66
2021/12/17 13:47:45;;;;;;;13.70;12.48;;;;;;;12.12;47.77;97148.13;5087850;28;20032;-65
2021/12/17 13:50:18;;;;;;;14.32;13.23;;;;;;;11.69;48.37;97152.78;5087719;28;20035;-67
2021/12/17 13:52:54;;;;;;;13.68;12.57;;;;;;;12.06;48.03;97165.19;5087771;28;20020;-65
2021/12/17 13:55:27;;;;;;;14.90;13.43;;;;;;;12.07;48.24;97166.78;5088320;28;20024;-66
2021/12/17 13:57:54;;;;;;;13.80;12.70;;;;;;;11.58;48.20;97167.13;5088057;28;20032;-65
2021/12/17 14:00:30;;;;;;;14.93;13.73;;;;;;;11.76;48.40;97148.00;5086137;28;20034;-66
2021/12/17 14:02:59;;;;;;;14.63;13.23;;;;;;;11.94;47.88;97155.56;5088265;28;20028;-66
2021/12/17 14:05:29;;;;;;;14.15;13.05;;;;;;;12.56;47.22;97177.00;5089254;28;20054;-66
2021/12/17 14:08:00;;;;;;;14.60;13.40;;;;;;;12.34;46.96;97167.38;5089145;28;20058;-64
2021/12/17 14:10:32;;;;;;;15.98;14.57;;;;;;;11.73;47.95;97190.41;5088955;28;20055;-66
2021/12/17 14:12:58;;;;;;;15.05;13.65;;;;;;;11.71;48.84;97163.97;5088028;28;20052;-67
2021/12/17 14:15:27;;;;;;;15.15;13.75;;;;;;;12.11;47.54;97178.53;5088588;28;20496;-67